Maria — SV7156 — position and weather

sailwx.info

Track history (hours):
 
Tides and Currents Weather Stations Pressure Air Temp Water Temp Dewpoint Dewpoint Depression Visibility Wind Speed Wind Dir Waves Ship Positions

Maria

Last reported at 2015-May-23 17:14 UTC. Time now 2015-May-24 09:12 UTC.
Position N 37°58' E 023°35'.

Length 74 m; draft 4.5 m.

Type: Ship. MMSI: 237493000.

Date/timePositionNaut miles runAvg speedWind from/ knotsBaromVisibWave heightAir tempDewpointWater temp
2015-May-23 17:14N 37°58' E 023°35'1 0.9
2015-May-23 16:33N 37°57' E 023°35'0 0.0
2015-May-23 15:34N 37°57' E 023°35'0 0.0
2015-May-23 14:33N 37°57' E 023°35'0 0.0
2015-May-23 13:34N 37°57' E 023°35'1 0.6
2015-May-23 12:34N 37°58' E 023°35'0 0.0
2015-May-23 11:34N 37°58' E 023°35'0 0.0
2015-May-23 10:34N 37°58' E 023°35'1 1.1
2015-May-23 09:34N 37°57' E 023°36'0 0.0
2015-May-23 08:33N 37°57' E 023°36'0 0.0
2015-May-23 07:34N 37°57' E 023°36'0 0.0
2015-May-23 06:34N 37°57' E 023°36'1 1.1
2015-May-23 05:34N 37°58' E 023°35'  
2015-May-20 19:33N 37°58' E 023°35'6 5.5
2015-May-20 18:33N 37°52' E 023°33'0 0.0
2015-May-20 17:33N 37°52' E 023°33'0 0.1
2015-May-20 16:33N 37°52' E 023°33'0 0.2
2015-May-20 15:33N 37°52' E 023°33'0 0.1
2015-May-20 14:33N 37°52' E 023°33'0 0.1
2015-May-20 13:33N 37°52' E 023°33'0 0.1
2015-May-20 12:33N 37°52' E 023°33'0 0.1
2015-May-20 11:33N 37°52' E 023°33'0 0.2
2015-May-20 10:33N 37°52' E 023°33'0 0.0
2015-May-20 09:33N 37°52' E 023°33'0 0.0
2015-May-20 08:33N 37°52' E 023°33'0 0.0
2015-May-20 07:33N 37°52' E 023°33'0 0.1
2015-May-20 06:33N 37°52' E 023°33'6 5.6
2015-May-20 05:33N 37°58' E 023°35'0 0.0
2015-May-20 04:33N 37°58' E 023°35'4 3.9
2015-May-20 03:33N 38°01' E 023°34'0 0.0
2015-May-20 02:33N 38°01' E 023°35'0 0.0
2015-May-20 01:27N 38°02' E 023°34'0 0.0
2015-May-20 00:33N 38°02' E 023°34'0 0.0
2015-May-19 23:33N 38°01' E 023°35'1 0.2
2015-May-19 19:16N 38°02' E 023°36'1 0.7
2015-May-19 17:32N 38°01' E 023°34'0 0.1
2015-May-19 16:32N 38°01' E 023°34'5 5.3
2015-May-19 15:33N 37°56' E 023°35'5 4.6
2015-May-19 14:33N 37°52' E 023°32'0 0.0
2015-May-19 13:33N 37°52' E 023°32'0 0.0
2015-May-19 12:33N 37°52' E 023°32'0 0.0
2015-May-19 11:33N 37°52' E 023°32'0 0.0
2015-May-19 10:33N 37°52' E 023°32'2 1.6
2015-May-19 09:33N 37°53' E 023°33'4 4.5
2015-May-19 08:33N 37°58' E 023°35'0 0.0
2015-May-18 21:26N 37°58' E 023°35'4 4.0
2015-May-18 20:33N 37°54' E 023°33'1 0.6
2015-May-18 19:33N 37°55' E 023°33'0 0.3
2015-May-18 18:33N 37°55' E 023°33'0 0.0
2015-May-18 17:33N 37°55' E 023°33'0 0.0
2015-May-18 16:33N 37°55' E 023°33'0 0.0
2015-May-18 15:33N 37°55' E 023°33'0 0.0
2015-May-18 14:33N 37°55' E 023°33'0 0.0
2015-May-18 13:33N 37°55' E 023°33'0 0.0
2015-May-18 12:33N 37°55' E 023°33'0 0.0
2015-May-18 11:33N 37°55' E 023°33'0 0.0
2015-May-18 10:33N 37°55' E 023°33'0 0.0
2015-May-18 09:33N 37°55' E 023°33'0 0.0
2015-May-18 08:33N 37°55' E 023°33'3 2.5
2015-May-18 07:33N 37°57' E 023°35'0 0.3
2015-May-18 06:33N 37°58' E 023°35'0 0.0
2015-May-18 05:33N 37°58' E 023°35'0 0.0
2015-May-18 04:33N 37°58' E 023°35'0 0.0
2015-May-18 03:33N 37°58' E 023°35'1 1.0
2015-May-18 02:33N 37°57' E 023°36'0 0.0
2015-May-18 01:33N 37°57' E 023°36'0 0.0
2015-May-18 00:33N 37°57' E 023°36'0 0.0
2015-May-17 23:33N 37°57' E 023°36'0 0.0
2015-May-17 22:33N 37°57' E 023°36'0 0.0
2015-May-17 21:33N 37°57' E 023°36'1 1.1
2015-May-17 20:33N 37°58' E 023°35'0 0.0
2015-May-16 19:33N 37°58' E 023°35'1 1.2
2015-May-16 18:33N 37°57' E 023°36'0 0.0
2015-May-16 17:33N 37°57' E 023°36'0 0.2
2015-May-16 16:33N 37°57' E 023°36'0 0.0
2015-May-16 15:33N 37°57' E 023°36'0 0.0
2015-May-16 14:33N 37°57' E 023°36'1 0.9
2015-May-16 13:33N 37°57' E 023°35'0 0.4
2015-May-16 12:33N 37°58' E 023°35'2 1.7
2015-May-16 11:33N 37°58' E 023°33'4 1.0
2015-May-16 07:27N 38°02' E 023°36'1 0.7
2015-May-16 05:26N 38°01' E 023°34'0 0.0
2015-May-16 04:20N 38°01' E 023°34'0 0.0
2015-May-16 03:29N 38°01' E 023°34'0 0.0
2015-May-16 02:32N 38°01' E 023°34'0 0.0
2015-May-16 01:33N 38°01' E 023°34'0 0.0
2015-May-16 00:24N 38°01' E 023°34'0 0.0
2015-May-15 23:33N 38°01' E 023°34'0 0.1
2015-May-15 22:30N 38°01' E 023°34'0 0.1
2015-May-15 21:26N 38°01' E 023°34'0 0.1
2015-May-15 20:33N 38°01' E 023°34'0 0.1
2015-May-15 19:33N 38°01' E 023°34'0 0.1
2015-May-15 18:31N 38°01' E 023°34'0 0.0
2015-May-15 17:33N 38°01' E 023°34'0 0.0
2015-May-15 16:33N 38°01' E 023°34'0 0.0
2015-May-15 15:33N 38°01' E 023°34'0 0.0
2015-May-15 14:33N 38°01' E 023°34'0 0.0
2015-May-15 13:32N 38°01' E 023°34'0 0.0
2015-May-15 12:33N 38°01' E 023°34'4 3.7
2015-May-15 11:33N 37°58' E 023°35'0 0.0
2015-May-15 10:33N 37°58' E 023°35'0 0.0
2015-May-15 09:33N 37°58' E 023°35'0 0.5
2015-May-15 08:33N 37°57' E 023°35'0 0.4
2015-May-15 07:33N 37°57' E 023°35'0 0.0
2015-May-15 06:33N 37°57' E 023°35'0 0.0
2015-May-15 05:31N 37°57' E 023°35'0 0.0
2015-May-15 04:25N 37°57' E 023°35'0 0.0
2015-May-15 03:33N 37°57' E 023°35'0 0.0
2015-May-15 02:33N 37°57' E 023°35'0 0.0
2015-May-14 04:30N 37°58' E 023°35'  
Track history (hours):
 
Tides and Currents Weather Stations Pressure Air Temp Water Temp Dewpoint Dewpoint Depression Visibility Wind Speed Wind Dir Waves Ship Positions

Maria

Last reported at 2015-May-23 17:14 UTC. Time now 2015-May-24 09:12 UTC.
Position N 37°58' E 023°35'.

Length 74 m; draft 4.5 m.

Type: Ship. MMSI: 237493000.

Date/timePositionNaut miles runAvg speedWind from/ knotsBaromVisibWave heightAir tempDewpointWater temp
2015-May-23 17:14N 37°58' E 023°35'1 0.9
2015-May-23 16:33N 37°57' E 023°35'0 0.0
2015-May-23 15:34N 37°57' E 023°35'0 0.0
2015-May-23 14:33N 37°57' E 023°35'0 0.0
2015-May-23 13:34N 37°57' E 023°35'1 0.6
2015-May-23 12:34N 37°58' E 023°35'0 0.0
2015-May-23 11:34N 37°58' E 023°35'0 0.0
2015-May-23 10:34N 37°58' E 023°35'1 1.1
2015-May-23 09:34N 37°57' E 023°36'0 0.0
2015-May-23 08:33N 37°57' E 023°36'0 0.0
2015-May-23 07:34N 37°57' E 023°36'0 0.0
2015-May-23 06:34N 37°57' E 023°36'1 1.1
2015-May-23 05:34N 37°58' E 023°35'  
2015-May-20 19:33N 37°58' E 023°35'6 5.5
2015-May-20 18:33N 37°52' E 023°33'0 0.0
2015-May-20 17:33N 37°52' E 023°33'0 0.1
2015-May-20 16:33N 37°52' E 023°33'0 0.2
2015-May-20 15:33N 37°52' E 023°33'0 0.1
2015-May-20 14:33N 37°52' E 023°33'0 0.1
2015-May-20 13:33N 37°52' E 023°33'0 0.1
2015-May-20 12:33N 37°52' E 023°33'0 0.1
2015-May-20 11:33N 37°52' E 023°33'0 0.2
2015-May-20 10:33N 37°52' E 023°33'0 0.0
2015-May-20 09:33N 37°52' E 023°33'0 0.0
2015-May-20 08:33N 37°52' E 023°33'0 0.0
2015-May-20 07:33N 37°52' E 023°33'0 0.1
2015-May-20 06:33N 37°52' E 023°33'6 5.6
2015-May-20 05:33N 37°58' E 023°35'0 0.0
2015-May-20 04:33N 37°58' E 023°35'4 3.9
2015-May-20 03:33N 38°01' E 023°34'0 0.0
2015-May-20 02:33N 38°01' E 023°35'0 0.0
2015-May-20 01:27N 38°02' E 023°34'0 0.0
2015-May-20 00:33N 38°02' E 023°34'0 0.0
2015-May-19 23:33N 38°01' E 023°35'1 0.2
2015-May-19 19:16N 38°02' E 023°36'1 0.7
2015-May-19 17:32N 38°01' E 023°34'0 0.1
2015-May-19 16:32N 38°01' E 023°34'5 5.3
2015-May-19 15:33N 37°56' E 023°35'5 4.6
2015-May-19 14:33N 37°52' E 023°32'0 0.0
2015-May-19 13:33N 37°52' E 023°32'0 0.0
2015-May-19 12:33N 37°52' E 023°32'0 0.0
2015-May-19 11:33N 37°52' E 023°32'0 0.0
2015-May-19 10:33N 37°52' E 023°32'2 1.6
2015-May-19 09:33N 37°53' E 023°33'4 4.5
2015-May-19 08:33N 37°58' E 023°35'0 0.0
2015-May-18 21:26N 37°58' E 023°35'4 4.0
2015-May-18 20:33N 37°54' E 023°33'1 0.6
2015-May-18 19:33N 37°55' E 023°33'0 0.3
2015-May-18 18:33N 37°55' E 023°33'0 0.0
2015-May-18 17:33N 37°55' E 023°33'0 0.0
2015-May-18 16:33N 37°55' E 023°33'0 0.0
2015-May-18 15:33N 37°55' E 023°33'0 0.0
2015-May-18 14:33N 37°55' E 023°33'0 0.0
2015-May-18 13:33N 37°55' E 023°33'0 0.0
2015-May-18 12:33N 37°55' E 023°33'0 0.0
2015-May-18 11:33N 37°55' E 023°33'0 0.0
2015-May-18 10:33N 37°55' E 023°33'0 0.0
2015-May-18 09:33N 37°55' E 023°33'0 0.0
2015-May-18 08:33N 37°55' E 023°33'3 2.5
2015-May-18 07:33N 37°57' E 023°35'0 0.3
2015-May-18 06:33N 37°58' E 023°35'0 0.0
2015-May-18 05:33N 37°58' E 023°35'0 0.0
2015-May-18 04:33N 37°58' E 023°35'0 0.0
2015-May-18 03:33N 37°58' E 023°35'1 1.0
2015-May-18 02:33N 37°57' E 023°36'0 0.0
2015-May-18 01:33N 37°57' E 023°36'0 0.0
2015-May-18 00:33N 37°57' E 023°36'0 0.0
2015-May-17 23:33N 37°57' E 023°36'0 0.0
2015-May-17 22:33N 37°57' E 023°36'0 0.0
2015-May-17 21:33N 37°57' E 023°36'1 1.1
2015-May-17 20:33N 37°58' E 023°35'0 0.0
2015-May-16 19:33N 37°58' E 023°35'1 1.2
2015-May-16 18:33N 37°57' E 023°36'0 0.0
2015-May-16 17:33N 37°57' E 023°36'0 0.2
2015-May-16 16:33N 37°57' E 023°36'0 0.0
2015-May-16 15:33N 37°57' E 023°36'0 0.0
2015-May-16 14:33N 37°57' E 023°36'1 0.9
2015-May-16 13:33N 37°57' E 023°35'0 0.4
2015-May-16 12:33N 37°58' E 023°35'2 1.7
2015-May-16 11:33N 37°58' E 023°33'4 1.0
2015-May-16 07:27N 38°02' E 023°36'1 0.7
2015-May-16 05:26N 38°01' E 023°34'0 0.0
2015-May-16 04:20N 38°01' E 023°34'0 0.0
2015-May-16 03:29N 38°01' E 023°34'0 0.0
2015-May-16 02:32N 38°01' E 023°34'0 0.0
2015-May-16 01:33N 38°01' E 023°34'0 0.0
2015-May-16 00:24N 38°01' E 023°34'0 0.0
2015-May-15 23:33N 38°01' E 023°34'0 0.1
2015-May-15 22:30N 38°01' E 023°34'0 0.1
2015-May-15 21:26N 38°01' E 023°34'0 0.1
2015-May-15 20:33N 38°01' E 023°34'0 0.1
2015-May-15 19:33N 38°01' E 023°34'0 0.1
2015-May-15 18:31N 38°01' E 023°34'0 0.0
2015-May-15 17:33N 38°01' E 023°34'0 0.0
2015-May-15 16:33N 38°01' E 023°34'0 0.0
2015-May-15 15:33N 38°01' E 023°34'0 0.0
2015-May-15 14:33N 38°01' E 023°34'0 0.0
2015-May-15 13:32N 38°01' E 023°34'0 0.0
2015-May-15 12:33N 38°01' E 023°34'4 3.7
2015-May-15 11:33N 37°58' E 023°35'0 0.0
2015-May-15 10:33N 37°58' E 023°35'0 0.0
2015-May-15 09:33N 37°58' E 023°35'0 0.5
2015-May-15 08:33N 37°57' E 023°35'0 0.4
2015-May-15 07:33N 37°57' E 023°35'0 0.0
2015-May-15 06:33N 37°57' E 023°35'0 0.0
2015-May-15 05:31N 37°57' E 023°35'0 0.0
2015-May-15 04:25N 37°57' E 023°35'0 0.0
2015-May-15 03:33N 37°57' E 023°35'0 0.0
2015-May-15 02:33N 37°57' E 023°35'0 0.0
2015-May-14 04:30N 37°58' E 023°35'  

Dump ship's entire track history